sensor_id;sensor_type;location;lat;lon;timestamp;P1;durP1;ratioP1;P2;durP2;ratioP2
70213;SDS011;60138;55.808;37.078;2023-07-16T00:00:01;20.33;;;9.25;;
70213;SDS011;60138;55.808;37.078;2023-07-16T00:02:30;14.33;;;8.70;;
70213;SDS011;60138;55.808;37.078;2023-07-16T00:04:56;15.70;;;9.02;;
70213;SDS011;60138;55.808;37.078;2023-07-16T00:07:22;14.73;;;7.97;;
70213;SDS011;60138;55.808;37.078;2023-07-16T00:09:47;12.15;;;8.25;;
70213;SDS011;60138;55.808;37.078;2023-07-16T00:12:13;11.13;;;7.53;;
70213;SDS011;60138;55.808;37.078;2023-07-16T00:14:39;12.88;;;7.07;;
70213;SDS011;60138;55.808;37.078;2023-07-16T00:17:04;11.00;;;7.43;;
70213;SDS011;60138;55.808;37.078;2023-07-16T00:19:30;9.93;;;7.68;;
70213;SDS011;60138;55.808;37.078;2023-07-16T00:21:56;13.00;;;8.07;;
70213;SDS011;60138;55.808;37.078;2023-07-16T00:24:21;10.00;;;6.70;;
70213;SDS011;60138;55.808;37.078;2023-07-16T00:26:47;9.63;;;6.93;;
70213;SDS011;60138;55.808;37.078;2023-07-16T00:29:13;11.20;;;7.97;;
70213;SDS011;60138;55.808;37.078;2023-07-16T00:31:39;13.33;;;7.80;;
70213;SDS011;60138;55.808;37.078;2023-07-16T00:34:05;10.52;;;7.70;;
70213;SDS011;60138;55.808;37.078;2023-07-16T00:36:30;15.37;;;8.20;;
70213;SDS011;60138;55.808;37.078;2023-07-16T00:38:56;14.18;;;7.78;;
70213;SDS011;60138;55.808;37.078;2023-07-16T00:41:22;13.83;;;7.90;;
70213;SDS011;60138;55.808;37.078;2023-07-16T00:43:47;13.52;;;7.82;;
70213;SDS011;60138;55.808;37.078;2023-07-16T00:46:13;12.80;;;8.13;;
70213;SDS011;60138;55.808;37.078;2023-07-16T00:48:40;10.18;;;7.93;;
70213;SDS011;60138;55.808;37.078;2023-07-16T00:51:07;11.07;;;6.90;;
70213;SDS011;60138;55.808;37.078;2023-07-16T00:53:33;13.13;;;7.40;;
70213;SDS011;60138;55.808;37.078;2023-07-16T00:55:59;10.60;;;7.27;;
70213;SDS011;60138;55.808;37.078;2023-07-16T00:58:25;13.25;;;7.97;;
70213;SDS011;60138;55.808;37.078;2023-07-16T01:00:50;14.48;;;7.88;;
70213;SDS011;60138;55.808;37.078;2023-07-16T01:03:16;14.13;;;8.57;;
70213;SDS011;60138;55.808;37.078;2023-07-16T01:08:45;17.73;;;8.60;;
70213;SDS011;60138;55.808;37.078;2023-07-16T01:11:15;12.30;;;8.48;;
70213;SDS011;60138;55.808;37.078;2023-07-16T01:13:41;13.87;;;7.80;;
70213;SDS011;60138;55.808;37.078;2023-07-16T01:16:18;12.55;;;7.30;;
70213;SDS011;60138;55.808;37.078;2023-07-16T01:18:44;11.82;;;8.20;;
70213;SDS011;60138;55.808;37.078;2023-07-16T01:21:10;9.60;;;7.70;;
70213;SDS011;60138;55.808;37.078;2023-07-16T01:23:50;9.98;;;7.45;;
70213;SDS011;60138;55.808;37.078;2023-07-16T01:26:39;12.32;;;7.75;;
70213;SDS011;60138;55.808;37.078;2023-07-16T01:29:43;16.55;;;8.60;;
70213;SDS011;60138;55.808;37.078;2023-07-16T01:32:19;12.93;;;8.63;;
70213;SDS011;60138;55.808;37.078;2023-07-16T01:34:45;22.23;;;10.45;;
70213;SDS011;60138;55.808;37.078;2023-07-16T01:37:12;24.95;;;11.57;;
70213;SDS011;60138;55.808;37.078;2023-07-16T01:39:38;23.08;;;9.75;;
70213;SDS011;60138;55.808;37.078;2023-07-16T01:42:04;21.73;;;10.23;;
70213;SDS011;60138;55.808;37.078;2023-07-16T01:44:30;17.25;;;9.65;;
70213;SDS011;60138;55.808;37.078;2023-07-16T01:50:03;14.55;;;8.57;;
70213;SDS011;60138;55.808;37.078;2023-07-16T01:52:29;15.77;;;8.03;;
70213;SDS011;60138;55.808;37.078;2023-07-16T01:54:55;17.00;;;9.15;;
70213;SDS011;60138;55.808;37.078;2023-07-16T01:57:21;12.00;;;8.73;;
70213;SDS011;60138;55.808;37.078;2023-07-16T01:59:47;24.10;;;9.50;;
70213;SDS011;60138;55.808;37.078;2023-07-16T02:02:13;20.83;;;10.05;;
70213;SDS011;60138;55.808;37.078;2023-07-16T02:04:38;25.93;;;10.47;;
70213;SDS011;60138;55.808;37.078;2023-07-16T02:07:04;17.67;;;7.82;;
70213;SDS011;60138;55.808;37.078;2023-07-16T02:09:30;15.43;;;7.43;;
70213;SDS011;60138;55.808;37.078;2023-07-16T02:11:56;13.90;;;7.27;;
70213;SDS011;60138;55.808;37.078;2023-07-16T02:14:21;16.23;;;7.28;;
70213;SDS011;60138;55.808;37.078;2023-07-16T02:16:47;19.23;;;9.00;;
70213;SDS011;60138;55.808;37.078;2023-07-16T02:19:13;14.30;;;7.00;;
70213;SDS011;60138;55.808;37.078;2023-07-16T02:21:42;24.42;;;9.23;;
70213;SDS011;60138;55.808;37.078;2023-07-16T02:24:08;21.33;;;9.63;;
70213;SDS011;60138;55.808;37.078;2023-07-16T02:26:34;27.35;;;10.07;;
70213;SDS011;60138;55.808;37.078;2023-07-16T02:29:00;17.67;;;8.18;;
70213;SDS011;60138;55.808;37.078;2023-07-16T02:31:26;10.87;;;6.77;;
70213;SDS011;60138;55.808;37.078;2023-07-16T02:33:51;12.50;;;6.90;;
70213;SDS011;60138;55.808;37.078;2023-07-16T02:36:17;10.53;;;6.60;;
70213;SDS011;60138;55.808;37.078;2023-07-16T02:38:43;16.33;;;8.75;;
70213;SDS011;60138;55.808;37.078;2023-07-16T02:41:09;20.63;;;8.53;;
70213;SDS011;60138;55.808;37.078;2023-07-16T02:43:35;17.90;;;7.88;;
70213;SDS011;60138;55.808;37.078;2023-07-16T02:46:01;21.63;;;9.40;;
70213;SDS011;60138;55.808;37.078;2023-07-16T02:48:28;29.10;;;10.65;;
70213;SDS011;60138;55.808;37.078;2023-07-16T02:50:54;27.53;;;10.40;;
70213;SDS011;60138;55.808;37.078;2023-07-16T02:53:20;22.42;;;10.32;;
70213;SDS011;60138;55.808;37.078;2023-07-16T02:55:45;22.90;;;10.67;;
70213;SDS011;60138;55.808;37.078;2023-07-16T02:58:11;19.08;;;9.80;;
70213;SDS011;60138;55.808;37.078;2023-07-16T03:00:37;13.10;;;8.87;;
70213;SDS011;60138;55.808;37.078;2023-07-16T03:03:02;13.18;;;7.03;;
70213;SDS011;60138;55.808;37.078;2023-07-16T03:05:28;8.97;;;5.33;;
70213;SDS011;60138;55.808;37.078;2023-07-16T03:07:56;10.32;;;6.60;;
70213;SDS011;60138;55.808;37.078;2023-07-16T03:10:22;10.47;;;7.03;;
70213;SDS011;60138;55.808;37.078;2023-07-16T03:12:48;9.63;;;6.45;;
70213;SDS011;60138;55.808;37.078;2023-07-16T03:15:14;9.60;;;7.00;;
70213;SDS011;60138;55.808;37.078;2023-07-16T03:17:40;13.20;;;7.18;;
70213;SDS011;60138;55.808;37.078;2023-07-16T03:20:06;11.45;;;6.78;;
70213;SDS011;60138;55.808;37.078;2023-07-16T03:22:33;10.27;;;6.75;;
70213;SDS011;60138;55.808;37.078;2023-07-16T03:25:00;9.10;;;6.93;;
70213;SDS011;60138;55.808;37.078;2023-07-16T03:27:26;9.10;;;6.75;;
70213;SDS011;60138;55.808;37.078;2023-07-16T03:29:56;9.07;;;6.13;;
70213;SDS011;60138;55.808;37.078;2023-07-16T03:32:23;10.85;;;6.90;;
70213;SDS011;60138;55.808;37.078;2023-07-16T03:34:48;9.03;;;6.77;;
70213;SDS011;60138;55.808;37.078;2023-07-16T03:37:14;11.68;;;6.35;;
70213;SDS011;60138;55.808;37.078;2023-07-16T03:39:40;8.97;;;6.57;;
70213;SDS011;60138;55.808;37.078;2023-07-16T03:42:05;8.80;;;6.20;;
70213;SDS011;60138;55.808;37.078;2023-07-16T03:44:31;10.13;;;6.57;;
70213;SDS011;60138;55.808;37.078;2023-07-16T03:46:59;7.85;;;5.80;;
70213;SDS011;60138;55.808;37.078;2023-07-16T03:49:26;8.88;;;6.10;;
70213;SDS011;60138;55.808;37.078;2023-07-16T03:51:52;13.82;;;6.10;;
70213;SDS011;60138;55.808;37.078;2023-07-16T03:54:17;12.47;;;5.90;;
70213;SDS011;60138;55.808;37.078;2023-07-16T03:56:43;8.07;;;6.07;;
70213;SDS011;60138;55.808;37.078;2023-07-16T03:59:09;13.87;;;6.73;;
70213;SDS011;60138;55.808;37.078;2023-07-16T04:01:35;10.68;;;6.05;;
70213;SDS011;60138;55.808;37.078;2023-07-16T04:04:00;12.67;;;6.47;;
70213;SDS011;60138;55.808;37.078;2023-07-16T04:06:26;11.52;;;6.40;;
70213;SDS011;60138;55.808;37.078;2023-07-16T04:08:52;10.40;;;6.63;;
70213;SDS011;60138;55.808;37.078;2023-07-16T04:11:18;7.50;;;6.40;;
70213;SDS011;60138;55.808;37.078;2023-07-16T04:13:43;10.05;;;7.57;;
70213;SDS011;60138;55.808;37.078;2023-07-16T04:16:09;8.30;;;5.87;;
70213;SDS011;60138;55.808;37.078;2023-07-16T04:18:35;8.13;;;6.30;;
70213;SDS011;60138;55.808;37.078;2023-07-16T04:21:01;11.13;;;7.25;;
70213;SDS011;60138;55.808;37.078;2023-07-16T04:23:26;8.73;;;5.83;;
70213;SDS011;60138;55.808;37.078;2023-07-16T04:25:52;8.13;;;6.35;;
70213;SDS011;60138;55.808;37.078;2023-07-16T04:28:19;8.75;;;6.00;;
70213;SDS011;60138;55.808;37.078;2023-07-16T04:30:44;13.60;;;6.22;;
70213;SDS011;60138;55.808;37.078;2023-07-16T04:33:10;9.55;;;5.72;;
70213;SDS011;60138;55.808;37.078;2023-07-16T04:35:36;8.32;;;5.63;;
70213;SDS011;60138;55.808;37.078;2023-07-16T04:38:02;8.32;;;5.10;;
70213;SDS011;60138;55.808;37.078;2023-07-16T04:40:30;11.50;;;5.90;;
70213;SDS011;60138;55.808;37.078;2023-07-16T04:42:56;9.50;;;6.32;;
70213;SDS011;60138;55.808;37.078;2023-07-16T04:45:22;9.40;;;6.28;;
70213;SDS011;60138;55.808;37.078;2023-07-16T04:47:48;9.35;;;7.13;;
70213;SDS011;60138;55.808;37.078;2023-07-16T04:50:14;10.10;;;6.37;;
70213;SDS011;60138;55.808;37.078;2023-07-16T04:52:40;9.70;;;6.95;;
70213;SDS011;60138;55.808;37.078;2023-07-16T04:55:06;8.57;;;6.50;;
70213;SDS011;60138;55.808;37.078;2023-07-16T04:57:32;8.07;;;5.53;;
70213;SDS011;60138;55.808;37.078;2023-07-16T04:59:58;7.15;;;5.28;;
70213;SDS011;60138;55.808;37.078;2023-07-16T05:02:24;11.37;;;5.97;;
70213;SDS011;60138;55.808;37.078;2023-07-16T05:04:50;8.48;;;5.20;;
70213;SDS011;60138;55.808;37.078;2023-07-16T05:07:15;8.68;;;5.57;;
70213;SDS011;60138;55.808;37.078;2023-07-16T05:09:44;8.67;;;5.07;;
70213;SDS011;60138;55.808;37.078;2023-07-16T05:12:10;8.45;;;5.25;;
70213;SDS011;60138;55.808;37.078;2023-07-16T05:14:43;8.13;;;4.77;;
70213;SDS011;60138;55.808;37.078;2023-07-16T05:17:09;7.78;;;4.65;;
70213;SDS011;60138;55.808;37.078;2023-07-16T05:19:35;6.68;;;4.85;;
70213;SDS011;60138;55.808;37.078;2023-07-16T05:22:01;7.83;;;4.93;;
70213;SDS011;60138;55.808;37.078;2023-07-16T05:24:27;6.43;;;4.82;;
70213;SDS011;60138;55.808;37.078;2023-07-16T05:26:53;7.28;;;4.68;;
70213;SDS011;60138;55.808;37.078;2023-07-16T05:29:18;10.30;;;4.50;;
70213;SDS011;60138;55.808;37.078;2023-07-16T05:31:44;5.80;;;4.30;;
70213;SDS011;60138;55.808;37.078;2023-07-16T05:34:10;6.70;;;4.78;;
70213;SDS011;60138;55.808;37.078;2023-07-16T05:36:35;8.80;;;4.80;;
70213;SDS011;60138;55.808;37.078;2023-07-16T05:39:01;7.13;;;4.65;;
70213;SDS011;60138;55.808;37.078;2023-07-16T05:41:27;6.37;;;4.77;;
70213;SDS011;60138;55.808;37.078;2023-07-16T05:43:53;9.23;;;4.53;;
70213;SDS011;60138;55.808;37.078;2023-07-16T05:46:18;10.27;;;3.70;;
70213;SDS011;60138;55.808;37.078;2023-07-16T05:48:44;8.55;;;4.30;;
70213;SDS011;60138;55.808;37.078;2023-07-16T05:51:10;7.17;;;4.80;;
70213;SDS011;60138;55.808;37.078;2023-07-16T05:53:35;7.20;;;3.58;;
70213;SDS011;60138;55.808;37.078;2023-07-16T05:56:01;6.87;;;4.33;;
70213;SDS011;60138;55.808;37.078;2023-07-16T05:58:27;10.55;;;4.22;;
70213;SDS011;60138;55.808;37.078;2023-07-16T06:00:52;6.27;;;3.73;;
70213;SDS011;60138;55.808;37.078;2023-07-16T06:03:18;6.68;;;4.10;;
70213;SDS011;60138;55.808;37.078;2023-07-16T06:05:44;7.47;;;4.23;;
70213;SDS011;60138;55.808;37.078;2023-07-16T06:08:10;5.78;;;3.80;;
70213;SDS011;60138;55.808;37.078;2023-07-16T06:10:35;5.50;;;3.93;;
70213;SDS011;60138;55.808;37.078;2023-07-16T06:13:01;9.05;;;3.92;;
70213;SDS011;60138;55.808;37.078;2023-07-16T06:15:27;8.30;;;4.20;;
70213;SDS011;60138;55.808;37.078;2023-07-16T06:17:52;7.72;;;4.32;;
70213;SDS011;60138;55.808;37.078;2023-07-16T06:20:18;6.67;;;3.93;;
70213;SDS011;60138;55.808;37.078;2023-07-16T06:22:44;8.35;;;4.10;;
70213;SDS011;60138;55.808;37.078;2023-07-16T06:25:10;12.07;;;4.93;;
70213;SDS011;60138;55.808;37.078;2023-07-16T06:27:35;15.48;;;5.45;;
70213;SDS011;60138;55.808;37.078;2023-07-16T06:30:01;11.27;;;4.00;;
70213;SDS011;60138;55.808;37.078;2023-07-16T06:32:29;9.03;;;4.23;;
70213;SDS011;60138;55.808;37.078;2023-07-16T06:34:55;8.90;;;4.43;;
70213;SDS011;60138;55.808;37.078;2023-07-16T06:37:21;11.07;;;4.30;;
70213;SDS011;60138;55.808;37.078;2023-07-16T06:39:46;5.90;;;3.67;;
70213;SDS011;60138;55.808;37.078;2023-07-16T06:42:12;6.70;;;3.40;;
70213;SDS011;60138;55.808;37.078;2023-07-16T06:44:38;7.25;;;4.10;;
70213;SDS011;60138;55.808;37.078;2023-07-16T06:47:03;7.37;;;3.70;;
70213;SDS011;60138;55.808;37.078;2023-07-16T06:49:30;8.15;;;3.85;;
70213;SDS011;60138;55.808;37.078;2023-07-16T06:51:55;5.82;;;3.63;;
70213;SDS011;60138;55.808;37.078;2023-07-16T06:54:21;6.97;;;3.40;;
70213;SDS011;60138;55.808;37.078;2023-07-16T06:56:47;6.43;;;3.10;;
70213;SDS011;60138;55.808;37.078;2023-07-16T06:59:13;6.27;;;3.10;;
70213;SDS011;60138;55.808;37.078;2023-07-16T07:01:38;7.57;;;3.40;;
70213;SDS011;60138;55.808;37.078;2023-07-16T07:04:04;6.90;;;3.67;;
70213;SDS011;60138;55.808;37.078;2023-07-16T07:06:30;13.18;;;3.60;;
70213;SDS011;60138;55.808;37.078;2023-07-16T07:08:55;4.30;;;2.80;;
70213;SDS011;60138;55.808;37.078;2023-07-16T07:11:21;5.93;;;3.25;;
70213;SDS011;60138;55.808;37.078;2023-07-16T07:13:47;4.67;;;2.73;;
70213;SDS011;60138;55.808;37.078;2023-07-16T07:16:12;6.95;;;3.38;;
70213;SDS011;60138;55.808;37.078;2023-07-16T07:18:38;4.47;;;2.77;;
70213;SDS011;60138;55.808;37.078;2023-07-16T07:21:04;5.45;;;3.35;;
70213;SDS011;60138;55.808;37.078;2023-07-16T07:23:30;5.63;;;3.20;;
70213;SDS011;60138;55.808;37.078;2023-07-16T07:25:56;5.15;;;2.60;;
70213;SDS011;60138;55.808;37.078;2023-07-16T07:28:22;4.97;;;2.83;;
70213;SDS011;60138;55.808;37.078;2023-07-16T07:30:48;6.25;;;3.45;;
70213;SDS011;60138;55.808;37.078;2023-07-16T07:33:14;6.70;;;3.40;;
70213;SDS011;60138;55.808;37.078;2023-07-16T07:35:39;6.78;;;3.55;;
70213;SDS011;60138;55.808;37.078;2023-07-16T07:38:05;7.63;;;4.17;;
70213;SDS011;60138;55.808;37.078;2023-07-16T07:40:31;9.38;;;4.05;;
70213;SDS011;60138;55.808;37.078;2023-07-16T07:42:56;10.83;;;4.17;;
70213;SDS011;60138;55.808;37.078;2023-07-16T07:45:23;11.48;;;5.15;;
70213;SDS011;60138;55.808;37.078;2023-07-16T07:47:49;18.92;;;5.97;;
70213;SDS011;60138;55.808;37.078;2023-07-16T07:50:15;9.17;;;4.33;;
70213;SDS011;60138;55.808;37.078;2023-07-16T07:52:41;21.90;;;5.95;;
70213;SDS011;60138;55.808;37.078;2023-07-16T07:55:07;11.40;;;5.28;;
70213;SDS011;60138;55.808;37.078;2023-07-16T07:57:33;11.13;;;4.70;;
70213;SDS011;60138;55.808;37.078;2023-07-16T07:59:58;12.40;;;4.72;;
70213;SDS011;60138;55.808;37.078;2023-07-16T08:02:24;6.90;;;3.50;;
70213;SDS011;60138;55.808;37.078;2023-07-16T08:04:53;6.25;;;3.50;;
70213;SDS011;60138;55.808;37.078;2023-07-16T08:07:20;13.30;;;3.75;;
70213;SDS011;60138;55.808;37.078;2023-07-16T08:09:46;6.75;;;3.00;;
70213;SDS011;60138;55.808;37.078;2023-07-16T08:12:12;7.47;;;3.78;;
70213;SDS011;60138;55.808;37.078;2023-07-16T08:14:38;7.17;;;3.43;;
70213;SDS011;60138;55.808;37.078;2023-07-16T08:17:04;10.80;;;3.65;;
70213;SDS011;60138;55.808;37.078;2023-07-16T08:19:30;4.85;;;3.20;;
70213;SDS011;60138;55.808;37.078;2023-07-16T08:21:56;6.20;;;3.20;;
70213;SDS011;60138;55.808;37.078;2023-07-16T08:24:22;4.72;;;2.85;;
70213;SDS011;60138;55.808;37.078;2023-07-16T08:26:47;5.30;;;2.53;;
70213;SDS011;60138;55.808;37.078;2023-07-16T08:29:13;4.35;;;2.50;;
70213;SDS011;60138;55.808;37.078;2023-07-16T08:31:39;5.27;;;3.03;;
70213;SDS011;60138;55.808;37.078;2023-07-16T08:34:05;9.88;;;3.30;;
70213;SDS011;60138;55.808;37.078;2023-07-16T08:36:32;6.00;;;3.53;;
70213;SDS011;60138;55.808;37.078;2023-07-16T08:38:58;6.82;;;2.95;;
70213;SDS011;60138;55.808;37.078;2023-07-16T08:41:24;7.25;;;3.92;;
70213;SDS011;60138;55.808;37.078;2023-07-16T08:43:51;7.05;;;3.00;;
70213;SDS011;60138;55.808;37.078;2023-07-16T08:46:17;4.80;;;3.30;;
70213;SDS011;60138;55.808;37.078;2023-07-16T08:48:44;6.13;;;3.50;;
70213;SDS011;60138;55.808;37.078;2023-07-16T08:51:10;5.20;;;3.15;;
70213;SDS011;60138;55.808;37.078;2023-07-16T08:53:40;4.88;;;3.28;;
70213;SDS011;60138;55.808;37.078;2023-07-16T08:56:06;5.72;;;3.70;;
70213;SDS011;60138;55.808;37.078;2023-07-16T08:58:32;4.37;;;2.73;;
70213;SDS011;60138;55.808;37.078;2023-07-16T09:00:58;5.20;;;3.25;;
70213;SDS011;60138;55.808;37.078;2023-07-16T09:03:25;5.13;;;2.80;;
70213;SDS011;60138;55.808;37.078;2023-07-16T09:05:53;6.32;;;3.08;;
70213;SDS011;60138;55.808;37.078;2023-07-16T09:08:19;7.38;;;3.65;;
70213;SDS011;60138;55.808;37.078;2023-07-16T09:10:52;6.53;;;3.65;;
70213;SDS011;60138;55.808;37.078;2023-07-16T09:13:19;5.70;;;3.10;;
70213;SDS011;60138;55.808;37.078;2023-07-16T09:15:50;6.40;;;3.13;;
70213;SDS011;60138;55.808;37.078;2023-07-16T09:18:24;8.07;;;3.55;;
70213;SDS011;60138;55.808;37.078;2023-07-16T09:20:54;6.65;;;3.30;;
70213;SDS011;60138;55.808;37.078;2023-07-16T09:23:24;7.78;;;3.53;;
70213;SDS011;60138;55.808;37.078;2023-07-16T09:25:50;7.60;;;3.77;;
70213;SDS011;60138;55.808;37.078;2023-07-16T09:28:18;4.93;;;2.80;;
70213;SDS011;60138;55.808;37.078;2023-07-16T09:30:44;5.47;;;2.78;;
70213;SDS011;60138;55.808;37.078;2023-07-16T09:33:10;5.20;;;2.97;;
70213;SDS011;60138;55.808;37.078;2023-07-16T09:35:39;6.28;;;3.00;;
70213;SDS011;60138;55.808;37.078;2023-07-16T09:38:04;7.47;;;2.53;;
70213;SDS011;60138;55.808;37.078;2023-07-16T09:40:32;9.10;;;2.80;;
70213;SDS011;60138;55.808;37.078;2023-07-16T09:42:58;5.13;;;3.23;;
70213;SDS011;60138;55.808;37.078;2023-07-16T09:45:24;5.63;;;2.50;;
70213;SDS011;60138;55.808;37.078;2023-07-16T09:47:49;5.25;;;2.60;;
70213;SDS011;60138;55.808;37.078;2023-07-16T09:50:15;4.87;;;2.77;;
70213;SDS011;60138;55.808;37.078;2023-07-16T09:52:41;5.18;;;3.53;;
70213;SDS011;60138;55.808;37.078;2023-07-16T09:55:07;4.90;;;3.40;;
70213;SDS011;60138;55.808;37.078;2023-07-16T09:57:38;6.30;;;2.60;;
70213;SDS011;60138;55.808;37.078;2023-07-16T10:00:06;5.13;;;2.53;;
70213;SDS011;60138;55.808;37.078;2023-07-16T10:02:38;6.25;;;3.22;;
70213;SDS011;60138;55.808;37.078;2023-07-16T10:05:24;4.22;;;2.85;;
70213;SDS011;60138;55.808;37.078;2023-07-16T10:07:52;6.97;;;3.50;;
70213;SDS011;60138;55.808;37.078;2023-07-16T10:10:18;9.18;;;3.42;;
70213;SDS011;60138;55.808;37.078;2023-07-16T10:12:55;7.63;;;2.90;;
70213;SDS011;60138;55.808;37.078;2023-07-16T10:15:28;4.57;;;2.72;;
70213;SDS011;60138;55.808;37.078;2023-07-16T10:17:55;8.73;;;3.35;;
70213;SDS011;60138;55.808;37.078;2023-07-16T10:20:35;5.40;;;3.80;;
70213;SDS011;60138;55.808;37.078;2023-07-16T10:23:11;5.40;;;3.20;;
70213;SDS011;60138;55.808;37.078;2023-07-16T10:25:38;5.38;;;3.30;;
70213;SDS011;60138;55.808;37.078;2023-07-16T10:28:05;6.63;;;3.08;;
70213;SDS011;60138;55.808;37.078;2023-07-16T10:30:31;5.47;;;3.27;;
70213;SDS011;60138;55.808;37.078;2023-07-16T10:32:57;8.18;;;3.40;;
70213;SDS011;60138;55.808;37.078;2023-07-16T10:35:23;8.75;;;3.50;;
70213;SDS011;60138;55.808;37.078;2023-07-16T10:37:49;5.40;;;3.53;;
70213;SDS011;60138;55.808;37.078;2023-07-16T10:40:14;5.32;;;3.42;;
70213;SDS011;60138;55.808;37.078;2023-07-16T10:42:41;8.27;;;3.73;;
70213;SDS011;60138;55.808;37.078;2023-07-16T10:45:08;5.53;;;2.97;;
70213;SDS011;60138;55.808;37.078;2023-07-16T10:47:35;7.18;;;3.63;;
70213;SDS011;60138;55.808;37.078;2023-07-16T10:50:03;4.40;;;2.97;;
70213;SDS011;60138;55.808;37.078;2023-07-16T10:52:31;6.72;;;3.25;;
70213;SDS011;60138;55.808;37.078;2023-07-16T10:54:57;9.23;;;3.73;;
70213;SDS011;60138;55.808;37.078;2023-07-16T10:57:22;13.15;;;4.30;;
70213;SDS011;60138;55.808;37.078;2023-07-16T10:59:50;6.77;;;3.33;;
70213;SDS011;60138;55.808;37.078;2023-07-16T11:02:16;6.95;;;4.00;;
70213;SDS011;60138;55.808;37.078;2023-07-16T11:04:43;6.78;;;3.78;;
70213;SDS011;60138;55.808;37.078;2023-07-16T11:07:11;5.68;;;3.83;;
70213;SDS011;60138;55.808;37.078;2023-07-16T11:12:11;7.20;;;4.03;;
70213;SDS011;60138;55.808;37.078;2023-07-16T11:14:38;6.65;;;3.88;;
70213;SDS011;60138;55.808;37.078;2023-07-16T11:17:08;9.98;;;4.55;;
70213;SDS011;60138;55.808;37.078;2023-07-16T11:19:34;7.75;;;4.50;;
70213;SDS011;60138;55.808;37.078;2023-07-16T11:22:01;7.10;;;3.63;;
70213;SDS011;60138;55.808;37.078;2023-07-16T11:24:28;7.33;;;3.77;;
70213;SDS011;60138;55.808;37.078;2023-07-16T11:27:00;5.80;;;3.50;;
70213;SDS011;60138;55.808;37.078;2023-07-16T11:29:26;6.35;;;3.60;;
70213;SDS011;60138;55.808;37.078;2023-07-16T11:31:59;6.50;;;2.97;;
70213;SDS011;60138;55.808;37.078;2023-07-16T11:34:25;4.63;;;3.40;;
70213;SDS011;60138;55.808;37.078;2023-07-16T11:36:51;6.00;;;4.03;;
70213;SDS011;60138;55.808;37.078;2023-07-16T11:39:16;7.22;;;3.30;;
70213;SDS011;60138;55.808;37.078;2023-07-16T11:41:42;4.67;;;3.20;;
70213;SDS011;60138;55.808;37.078;2023-07-16T11:44:19;5.85;;;2.80;;
70213;SDS011;60138;55.808;37.078;2023-07-16T11:46:46;5.65;;;3.13;;
70213;SDS011;60138;55.808;37.078;2023-07-16T11:49:12;4.47;;;2.77;;
70213;SDS011;60138;55.808;37.078;2023-07-16T11:51:37;12.93;;;3.38;;
70213;SDS011;60138;55.808;37.078;2023-07-16T11:54:03;8.77;;;2.90;;
70213;SDS011;60138;55.808;37.078;2023-07-16T11:56:29;5.97;;;2.75;;
70213;SDS011;60138;55.808;37.078;2023-07-16T11:58:54;10.57;;;4.73;;
70213;SDS011;60138;55.808;37.078;2023-07-16T12:01:20;9.50;;;5.30;;
70213;SDS011;60138;55.808;37.078;2023-07-16T12:03:46;7.90;;;3.77;;
70213;SDS011;60138;55.808;37.078;2023-07-16T12:06:11;5.65;;;3.55;;
70213;SDS011;60138;55.808;37.078;2023-07-16T12:08:37;7.23;;;4.13;;
70213;SDS011;60138;55.808;37.078;2023-07-16T12:11:03;5.00;;;2.65;;
70213;SDS011;60138;55.808;37.078;2023-07-16T12:13:29;4.80;;;2.43;;
70213;SDS011;60138;55.808;37.078;2023-07-16T12:15:54;6.88;;;2.33;;
70213;SDS011;60138;55.808;37.078;2023-07-16T12:18:20;6.40;;;2.67;;
70213;SDS011;60138;55.808;37.078;2023-07-16T12:20:46;4.65;;;2.70;;
70213;SDS011;60138;55.808;37.078;2023-07-16T12:23:12;5.03;;;2.72;;
70213;SDS011;60138;55.808;37.078;2023-07-16T12:25:38;4.13;;;2.40;;
70213;SDS011;60138;55.808;37.078;2023-07-16T12:28:03;7.95;;;2.63;;
70213;SDS011;60138;55.808;37.078;2023-07-16T12:30:29;9.30;;;2.70;;
70213;SDS011;60138;55.808;37.078;2023-07-16T12:32:55;4.68;;;2.33;;
70213;SDS011;60138;55.808;37.078;2023-07-16T12:35:21;5.13;;;2.40;;
70213;SDS011;60138;55.808;37.078;2023-07-16T12:37:46;4.90;;;2.67;;
70213;SDS011;60138;55.808;37.078;2023-07-16T12:40:12;4.70;;;2.33;;
70213;SDS011;60138;55.808;37.078;2023-07-16T12:42:38;9.20;;;4.00;;
70213;SDS011;60138;55.808;37.078;2023-07-16T12:45:03;4.03;;;2.73;;
70213;SDS011;60138;55.808;37.078;2023-07-16T12:47:32;8.13;;;3.78;;
70213;SDS011;60138;55.808;37.078;2023-07-16T12:49:58;8.75;;;5.07;;
70213;SDS011;60138;55.808;37.078;2023-07-16T12:52:24;13.63;;;4.45;;
70213;SDS011;60138;55.808;37.078;2023-07-16T12:54:50;12.60;;;3.03;;
70213;SDS011;60138;55.808;37.078;2023-07-16T12:57:16;5.20;;;2.90;;
70213;SDS011;60138;55.808;37.078;2023-07-16T12:59:43;3.78;;;2.28;;
70213;SDS011;60138;55.808;37.078;2023-07-16T13:02:09;6.53;;;2.53;;
70213;SDS011;60138;55.808;37.078;2023-07-16T13:04:34;4.57;;;2.00;;
70213;SDS011;60138;55.808;37.078;2023-07-16T13:07:00;5.22;;;2.38;;
70213;SDS011;60138;55.808;37.078;2023-07-16T13:09:26;5.53;;;2.57;;
70213;SDS011;60138;55.808;37.078;2023-07-16T13:11:52;6.07;;;2.60;;
70213;SDS011;60138;55.808;37.078;2023-07-16T13:14:17;6.30;;;3.20;;
70213;SDS011;60138;55.808;37.078;2023-07-16T13:16:43;4.60;;;2.17;;
70213;SDS011;60138;55.808;37.078;2023-07-16T13:19:09;5.65;;;2.40;;
70213;SDS011;60138;55.808;37.078;2023-07-16T13:21:35;4.27;;;2.50;;
70213;SDS011;60138;55.808;37.078;2023-07-16T13:24:00;7.70;;;3.20;;
70213;SDS011;60138;55.808;37.078;2023-07-16T13:26:26;5.93;;;2.97;;
70213;SDS011;60138;55.808;37.078;2023-07-16T13:28:52;4.97;;;2.85;;
70213;SDS011;60138;55.808;37.078;2023-07-16T13:31:18;7.27;;;3.10;;
70213;SDS011;60138;55.808;37.078;2023-07-16T13:33:43;5.15;;;2.70;;
70213;SDS011;60138;55.808;37.078;2023-07-16T13:36:09;3.97;;;2.30;;
70213;SDS011;60138;55.808;37.078;2023-07-16T13:38:35;11.77;;;6.60;;
70213;SDS011;60138;55.808;37.078;2023-07-16T13:41:00;6.35;;;3.75;;
70213;SDS011;60138;55.808;37.078;2023-07-16T13:43:26;5.00;;;3.47;;
70213;SDS011;60138;55.808;37.078;2023-07-16T13:45:52;4.18;;;2.50;;
70213;SDS011;60138;55.808;37.078;2023-07-16T13:48:18;5.73;;;2.73;;
70213;SDS011;60138;55.808;37.078;2023-07-16T13:50:43;4.70;;;2.78;;
70213;SDS011;60138;55.808;37.078;2023-07-16T13:53:09;4.63;;;3.10;;
70213;SDS011;60138;55.808;37.078;2023-07-16T13:55:35;4.97;;;2.58;;
70213;SDS011;60138;55.808;37.078;2023-07-16T13:58:01;5.10;;;2.90;;
70213;SDS011;60138;55.808;37.078;2023-07-16T14:00:26;5.00;;;3.00;;
70213;SDS011;60138;55.808;37.078;2023-07-16T14:02:52;4.47;;;2.70;;
70213;SDS011;60138;55.808;37.078;2023-07-16T14:05:18;6.53;;;2.78;;
70213;SDS011;60138;55.808;37.078;2023-07-16T14:07:44;4.33;;;2.93;;
70213;SDS011;60138;55.808;37.078;2023-07-16T14:10:09;7.25;;;4.50;;
70213;SDS011;60138;55.808;37.078;2023-07-16T14:12:35;7.77;;;2.90;;
70213;SDS011;60138;55.808;37.078;2023-07-16T14:15:00;5.40;;;3.38;;
70213;SDS011;60138;55.808;37.078;2023-07-16T14:17:30;5.55;;;3.28;;
70213;SDS011;60138;55.808;37.078;2023-07-16T14:19:56;5.80;;;3.87;;
70213;SDS011;60138;55.808;37.078;2023-07-16T14:22:21;9.35;;;6.18;;
70213;SDS011;60138;55.808;37.078;2023-07-16T14:24:47;11.90;;;6.43;;
70213;SDS011;60138;55.808;37.078;2023-07-16T14:27:13;8.02;;;4.53;;
70213;SDS011;60138;55.808;37.078;2023-07-16T14:29:39;9.30;;;5.77;;
70213;SDS011;60138;55.808;37.078;2023-07-16T14:32:04;7.97;;;6.00;;
70213;SDS011;60138;55.808;37.078;2023-07-16T14:34:30;8.80;;;4.87;;